createdAt,value
2018-04-22T00:00:22.160Z,99.99
2018-04-22T00:01:31.266Z,99.75
2018-04-22T00:02:40.099Z,99.55
2018-04-22T00:03:49.200Z,99.99
2018-04-22T00:04:58.156Z,99.94
2018-04-22T00:06:06.866Z,99.99
2018-04-22T00:07:15.698Z,99.99
2018-04-22T00:08:24.803Z,99.99
2018-04-22T00:09:34.315Z,99.99
2018-04-22T00:10:43.145Z,99.99
2018-04-22T00:11:52.028Z,99.99
2018-04-22T00:13:00.860Z,99.99
2018-04-22T00:14:09.692Z,99.46
2018-04-22T00:15:18.525Z,99.65
2018-04-22T00:16:27.355Z,99.99
2018-04-22T00:17:36.188Z,99.65
2018-04-22T00:18:45.024Z,99.99
2018-04-22T00:19:53.855Z,99.94
2018-04-22T00:21:02.993Z,99.84
2018-04-22T00:22:11.817Z,99.37
2018-04-22T00:23:20.653Z,99.75
2018-04-22T00:24:29.484Z,99.55
2018-04-22T00:25:38.315Z,99.99
2018-04-22T00:26:47.447Z,99.55
2018-04-22T00:27:56.280Z,99.84
2018-04-22T00:29:05.113Z,99.84
2018-04-22T00:30:14.221Z,99.51
2018-04-22T00:31:23.053Z,99.99
2018-04-22T00:32:31.985Z,99.55
2018-04-22T00:33:40.817Z,99.94
2018-04-22T00:34:49.646Z,99.99
2018-04-22T00:35:58.477Z,99.99
2018-04-22T00:37:07.860Z,99.99
2018-04-22T00:38:17.405Z,99.99
2018-04-22T00:39:26.509Z,99.99
2018-04-22T00:40:35.337Z,99.99
2018-04-22T00:41:44.447Z,99.6
2018-04-22T00:42:53.275Z,99.99
2018-04-22T00:44:02.361Z,99.99
2018-04-22T00:45:11.471Z,99.99
2018-04-22T00:46:20.303Z,99.99
2018-04-22T00:47:29.136Z,99.99
2018-04-22T00:48:38.246Z,99.99
2018-04-22T00:49:47.178Z,99.99
2018-04-22T00:50:56.018Z,99.99
2018-04-22T00:52:04.845Z,99.99
2018-04-22T00:53:13.676Z,99.99
2018-04-22T00:54:22.514Z,99.99
2018-04-22T00:55:31.349Z,99.99
2018-04-22T00:56:40.453Z,99.99
2018-04-22T00:57:49.285Z,99.99
2018-04-22T00:58:58.117Z,99.99
2018-04-22T01:00:06.952Z,99.99
2018-04-22T01:01:15.931Z,99.99
2018-04-22T01:02:25.321Z,99.99
2018-04-22T01:03:34.429Z,99.99
2018-04-22T01:04:43.262Z,99.99
2018-04-22T01:05:52.092Z,99.99
2018-04-22T01:07:01.122Z,99.99
2018-04-22T01:08:10.231Z,99.99
2018-04-22T01:09:19.063Z,99.99
2018-04-22T01:10:27.892Z,99.99
2018-04-22T01:11:36.725Z,99.99
2018-04-22T01:12:45.610Z,99.99
2018-04-22T01:13:54.711Z,99.99
2018-04-22T01:15:03.542Z,99.99
2018-04-22T01:16:12.373Z,99.99
2018-04-22T01:17:21.755Z,99.99
2018-04-22T01:18:30.587Z,99.99
2018-04-22T01:19:39.694Z,99.99
2018-04-22T01:20:48.798Z,99.99
2018-04-22T01:21:57.630Z,99.99
2018-04-22T01:23:06.462Z,99.99
2018-04-22T01:24:15.298Z,99.99
2018-04-22T01:25:24.129Z,99.99
2018-04-22T01:26:32.963Z,99.99
2018-04-22T01:27:41.795Z,99.99
2018-04-22T01:28:50.626Z,99.99
2018-04-22T01:29:59.458Z,99.99
2018-04-22T01:31:08.564Z,99.99
2018-04-22T01:32:17.668Z,99.99
2018-04-22T01:33:26.499Z,99.99
2018-04-22T01:34:35.613Z,99.99
2018-04-22T01:35:44.824Z,99.99
2018-04-22T01:36:53.656Z,99.99
2018-04-22T01:38:02.483Z,99.99
2018-04-22T01:39:11.315Z,99.99
2018-04-22T01:40:20.146Z,99.99
2018-04-22T01:41:29.252Z,99.99
2018-04-22T01:42:38.088Z,99.99
2018-04-22T01:43:46.914Z,99.99
2018-04-22T01:44:55.746Z,99.99
2018-04-22T01:46:04.580Z,99.99
2018-04-22T01:47:13.990Z,99.99
2018-04-22T01:48:23.105Z,99.99
2018-04-22T01:49:31.935Z,99.99
2018-04-22T01:50:41.041Z,99.99
2018-04-22T01:51:50.148Z,99.99
2018-04-22T01:52:59.028Z,99.99
2018-04-22T01:54:07.859Z,99.99
2018-04-22T01:55:16.968Z,99.99
2018-04-22T01:56:25.798Z,99.99
2018-04-22T01:57:34.635Z,99.99
2018-04-22T01:58:43.882Z,99.99
2018-04-22T01:59:52.713Z,99.99
2018-04-22T02:01:01.543Z,99.99
2018-04-22T02:02:10.376Z,99.99
2018-04-22T02:03:19.212Z,99.99
2018-04-22T02:04:28.465Z,99.99
2018-04-22T02:05:37.296Z,99.99
2018-04-22T02:06:46.407Z,99.99
2018-04-22T02:07:55.235Z,99.99
2018-04-22T02:09:04.069Z,99.99
2018-04-22T02:10:12.950Z,99.99
2018-04-22T02:11:21.786Z,99.99
2018-04-22T02:12:30.610Z,99.99
2018-04-22T02:13:39.441Z,99.99
2018-04-22T02:14:48.273Z,99.99
2018-04-22T02:15:57.406Z,99.99
2018-04-22T02:17:06.524Z,99.99
2018-04-22T02:18:15.629Z,99.99
2018-04-22T02:19:24.459Z,99.99
2018-04-22T02:20:33.290Z,99.99
2018-04-22T02:21:42.280Z,99.99
2018-04-22T02:22:51.113Z,99.99
2018-04-22T02:24:00.257Z,99.99
2018-04-22T02:25:09.636Z,99.99
2018-04-22T02:26:18.469Z,99.99
2018-04-22T02:27:27.399Z,99.99
2018-04-22T02:28:36.506Z,99.99
2018-04-22T02:29:45.342Z,99.99
2018-04-22T02:30:54.169Z,99.99
2018-04-22T02:32:02.999Z,99.99
2018-04-22T02:33:11.833Z,99.99
2018-04-22T02:34:20.938Z,99.99
2018-04-22T02:35:29.769Z,99.99
2018-04-22T02:36:38.877Z,99.99
2018-04-22T02:37:47.712Z,99.99
2018-04-22T02:38:56.544Z,99.99
2018-04-22T02:40:05.655Z,99.99
2018-04-22T02:41:15.320Z,99.99
2018-04-22T02:42:24.161Z,99.99
2018-04-22T02:43:33.047Z,99.99
2018-04-22T02:44:42.489Z,99.99
2018-04-22T02:45:51.601Z,99.99
2018-04-22T02:47:00.435Z,99.99
2018-04-22T02:48:09.548Z,99.99
2018-04-22T02:49:18.931Z,99.99
2018-04-22T02:50:28.463Z,99.99
2018-04-22T02:51:37.570Z,99.99
2018-04-22T02:52:46.402Z,99.99
2018-04-22T02:53:55.526Z,99.99
2018-04-22T02:55:04.357Z,99.99
2018-04-22T02:56:13.393Z,99.99
2018-04-22T02:57:22.225Z,99.99
2018-04-22T02:58:31.333Z,99.99
2018-04-22T02:59:40.441Z,99.99
2018-04-22T03:00:49.824Z,99.99
2018-04-22T03:01:59.082Z,99.99
2018-04-22T03:03:07.914Z,99.99
2018-04-22T03:04:16.745Z,99.99
2018-04-22T03:05:25.848Z,99.99
2018-04-22T03:06:34.680Z,99.99
2018-04-22T03:07:43.895Z,99.99
2018-04-22T03:08:52.727Z,99.99
2018-04-22T03:10:01.559Z,99.99
2018-04-22T03:11:10.388Z,99.99
2018-04-22T03:12:19.493Z,99.99
2018-04-22T03:13:28.477Z,99.99
2018-04-22T03:14:37.408Z,99.99
2018-04-22T03:15:46.239Z,99.99
2018-04-22T03:16:55.073Z,99.99
2018-04-22T03:18:03.902Z,99.99
2018-04-22T03:19:13.164Z,99.99
2018-04-22T03:20:21.993Z,99.99
2018-04-22T03:21:31.098Z,99.99
2018-04-22T03:22:39.929Z,99.99
2018-04-22T03:23:48.761Z,99.99
2018-04-22T03:24:57.921Z,99.99
2018-04-22T03:26:06.752Z,99.99
2018-04-22T03:27:15.582Z,99.99
2018-04-22T03:28:24.414Z,99.99
2018-04-22T03:29:33.246Z,99.99
2018-04-22T03:31:14.235Z,99.99
2018-04-22T03:32:23.339Z,99.99
2018-04-22T03:33:32.171Z,99.99
2018-04-22T03:34:41.002Z,99.99
2018-04-22T03:35:49.833Z,99.99
2018-04-22T03:36:58.765Z,99.99
2018-04-22T03:38:07.599Z,99.99
2018-04-22T03:39:16.427Z,99.99
2018-04-22T03:40:25.295Z,99.99
2018-04-22T03:41:34.643Z,99.99
2018-04-22T03:42:43.624Z,99.99
2018-04-22T03:43:52.454Z,99.99
2018-04-22T03:45:01.288Z,99.99
2018-04-22T03:46:10.392Z,99.99
2018-04-22T03:47:19.228Z,99.99
2018-04-22T03:48:28.059Z,99.99
2018-04-22T03:49:36.888Z,99.99
2018-04-22T03:50:45.991Z,99.99
2018-04-22T03:51:54.833Z,99.99
2018-04-22T03:53:03.660Z,99.99
2018-04-22T03:54:12.816Z,99.99
2018-04-22T03:55:21.646Z,99.99
2018-04-22T03:56:30.477Z,99.99
2018-04-22T03:57:39.628Z,99.99
2018-04-22T03:58:48.458Z,99.99
2018-04-22T03:59:57.291Z,99.99
2018-04-22T04:01:06.128Z,99.99
2018-04-22T04:02:14.959Z,99.99
2018-04-22T04:03:23.791Z,99.99
2018-04-22T04:04:32.624Z,99.99
2018-04-22T04:05:41.754Z,99.99
2018-04-22T04:06:50.585Z,99.99
2018-04-22T04:07:59.704Z,99.99
2018-04-22T04:09:08.536Z,99.99
2018-04-22T04:10:17.367Z,99.99
2018-04-22T04:11:26.474Z,99.99
2018-04-22T04:12:35.305Z,99.99
2018-04-22T04:13:44.132Z,99.99
2018-04-22T04:14:52.966Z,99.99
2018-04-22T04:16:01.797Z,99.99
2018-04-22T04:17:10.731Z,99.99
2018-04-22T04:18:19.570Z,99.99
2018-04-22T04:19:28.677Z,99.99
2018-04-22T04:20:37.778Z,99.99
2018-04-22T04:21:46.608Z,99.99
2018-04-22T04:22:55.590Z,99.99
2018-04-22T04:24:04.972Z,99.99
2018-04-22T04:25:13.805Z,99.99
2018-04-22T04:26:22.912Z,99.99
2018-04-22T04:27:31.745Z,99.99
2018-04-22T04:28:40.930Z,99.99
2018-04-22T04:29:50.040Z,99.99
2018-04-22T04:30:59.145Z,99.99
2018-04-22T04:32:08.252Z,99.99
2018-04-22T04:33:17.085Z,99.99
2018-04-22T04:34:25.921Z,99.99
2018-04-22T04:35:34.751Z,99.99
2018-04-22T04:36:43.582Z,99.99
2018-04-22T04:37:52.695Z,99.99
2018-04-22T04:39:01.799Z,99.99
2018-04-22T04:40:10.689Z,99.99
2018-04-22T04:41:19.802Z,99.99
2018-04-22T04:42:28.633Z,99.99
2018-04-22T04:43:37.745Z,99.99
2018-04-22T04:44:46.574Z,99.99
2018-04-22T04:45:55.554Z,99.99
2018-04-22T04:47:04.386Z,99.99
2018-04-22T04:48:13.213Z,99.99
2018-04-22T04:49:22.317Z,99.99
2018-04-22T04:50:31.149Z,99.99
2018-04-22T04:51:40.280Z,99.99
2018-04-22T04:52:49.394Z,99.99
2018-04-22T04:53:58.224Z,99.99
2018-04-22T04:55:07.054Z,99.99
2018-04-22T04:56:15.882Z,99.99
2018-04-22T04:57:25.093Z,99.99
2018-04-22T04:58:33.923Z,99.99
2018-04-22T04:59:42.767Z,99.99
2018-04-22T05:00:51.872Z,99.99
2018-04-22T05:02:00.982Z,99.99
2018-04-22T05:03:09.911Z,99.99
2018-04-22T05:04:19.016Z,99.99
2018-04-22T05:05:27.845Z,99.99
2018-04-22T05:06:36.950Z,99.99
2018-04-22T05:07:45.780Z,99.99
2018-04-22T05:08:54.911Z,99.99
2018-04-22T05:10:03.738Z,99.99
2018-04-22T05:11:12.568Z,99.99
2018-04-22T05:12:21.681Z,99.99
2018-04-22T05:13:30.511Z,99.99
2018-04-22T05:14:39.443Z,99.99
2018-04-22T05:15:48.276Z,99.99
2018-04-22T05:16:57.109Z,99.99
2018-04-22T05:18:05.941Z,99.99
2018-04-22T05:19:14.771Z,99.99
2018-04-22T05:20:23.605Z,99.99
2018-04-22T05:21:32.438Z,99.99
2018-04-22T05:22:41.271Z,99.99
2018-04-22T05:23:50.104Z,99.99
2018-04-22T05:24:58.938Z,99.99
2018-04-22T05:26:07.771Z,99.99
2018-04-22T05:27:16.606Z,99.99
2018-04-22T05:28:25.712Z,99.99
2018-04-22T05:29:34.551Z,99.99
2018-04-22T05:30:43.382Z,99.99
2018-04-22T05:31:52.513Z,99.99
2018-04-22T05:33:01.344Z,99.99
2018-04-22T05:34:10.174Z,99.99
2018-04-22T05:35:19.004Z,99.99
2018-04-22T05:36:28.171Z,99.99
2018-04-22T05:37:37.096Z,99.99
2018-04-22T05:38:45.927Z,99.99
2018-04-22T05:39:54.763Z,99.99
2018-04-22T05:41:03.595Z,99.99
2018-04-22T05:42:12.428Z,99.99
2018-04-22T05:43:21.817Z,99.99
2018-04-22T05:44:30.646Z,99.99
2018-04-22T05:45:39.475Z,99.99
2018-04-22T05:46:48.306Z,99.99
2018-04-22T05:47:57.143Z,99.99
2018-04-22T05:49:06.072Z,99.99
2018-04-22T05:50:14.904Z,99.99
2018-04-22T05:51:23.736Z,99.99
2018-04-22T05:52:32.568Z,99.99
2018-04-22T05:53:41.953Z,99.99
2018-04-22T05:54:51.385Z,99.99
2018-04-22T05:56:00.215Z,99.99
2018-04-22T05:57:09.048Z,99.99
2018-04-22T05:58:18.158Z,99.99
2018-04-22T05:59:26.990Z,99.99
2018-04-22T06:00:35.823Z,99.99
2018-04-22T06:01:44.662Z,99.99
2018-04-22T06:02:53.491Z,99.99
2018-04-22T06:04:02.324Z,99.99
2018-04-22T06:05:11.156Z,99.99
2018-04-22T06:06:20.139Z,99.99
2018-04-22T06:07:28.973Z,99.98
2018-04-22T06:08:37.854Z,99.99
2018-04-22T06:09:46.639Z,99.79
2018-04-22T06:10:55.473Z,99.98
2018-04-22T06:12:05.112Z,99.03
2018-04-22T06:13:13.943Z,99.13
2018-04-22T06:14:22.779Z,99.41
2018-04-22T06:15:31.611Z,99.32
2018-04-22T06:16:40.722Z,99.22
2018-04-22T06:17:49.605Z,99.22
2018-04-22T06:18:58.439Z,99.08
2018-04-22T06:20:07.271Z,99.55
2018-04-22T06:21:16.380Z,99.46
2018-04-22T06:22:25.209Z,99.46
2018-04-22T06:23:34.371Z,98.89
2018-04-22T06:24:43.481Z,98.6
2018-04-22T06:25:52.585Z,98.03
2018-04-22T06:27:01.421Z,98.41
2018-04-22T06:28:10.528Z,98.89
2018-04-22T06:29:19.463Z,99.18
2018-04-22T06:30:28.295Z,99.55
2018-04-22T06:31:37.129Z,99.65
2018-04-22T06:32:46.240Z,98.99
2018-04-22T06:33:55.073Z,98.7
2018-04-22T06:35:04.005Z,99.37
2018-04-22T06:36:13.110Z,99.51
2018-04-22T06:37:21.942Z,98.75
2018-04-22T06:38:30.776Z,98.85
2018-04-22T06:39:39.608Z,99.6
2018-04-22T06:40:48.440Z,98.94
2018-04-22T06:41:57.274Z,98.85
2018-04-22T06:43:06.384Z,97.8
2018-04-22T06:44:15.217Z,98.94
2018-04-22T06:45:24.050Z,99.04
2018-04-22T06:46:32.933Z,99.13
2018-04-22T06:47:41.766Z,97.8
2018-04-22T06:48:50.600Z,98.13
2018-04-22T06:49:59.435Z,98.42
2018-04-22T06:51:08.283Z,97.75
2018-04-22T06:52:17.439Z,98.8
2018-04-22T06:53:26.293Z,98.42
2018-04-22T06:54:35.107Z,98.7
2018-04-22T06:55:43.941Z,98.9
2018-04-22T06:56:53.048Z,98.32
2018-04-22T06:58:02.269Z,98.13
2018-04-22T06:59:11.104Z,97.27
2018-04-22T07:00:19.938Z,97.17
2018-04-22T07:01:29.050Z,97.27
2018-04-22T07:02:37.882Z,96.8
2018-04-22T07:03:46.715Z,96.98
2018-04-22T07:04:55.548Z,97.08
2018-04-22T07:06:04.385Z,97.08
2018-04-22T07:07:13.220Z,97.37
2018-04-22T07:08:22.053Z,98.22
2018-04-22T07:09:31.263Z,97.99
2018-04-22T07:10:40.099Z,97.61
2018-04-22T07:11:48.933Z,98.08
2018-04-22T07:12:58.041Z,97.22
2018-04-22T07:14:07.430Z,97.42
2018-04-22T07:15:16.419Z,97.42
2018-04-22T07:16:25.252Z,96.46
2018-04-22T07:17:34.360Z,96.37
2018-04-22T07:18:43.195Z,96.94
2018-04-22T07:19:52.029Z,95.7
2018-04-22T07:21:01.017Z,96.37
2018-04-22T07:22:10.122Z,96.27
2018-04-22T07:23:18.959Z,96.08
2018-04-22T07:24:27.790Z,96.27
2018-04-22T07:25:36.903Z,96.89
2018-04-22T07:26:46.167Z,96.98
2018-04-22T07:27:55.276Z,97.18
2018-04-22T07:29:04.390Z,96.98
2018-04-22T07:30:13.777Z,96.22
2018-04-22T07:31:22.608Z,96.03
2018-04-22T07:32:31.831Z,95.94
2018-04-22T07:33:40.672Z,96.03
2018-04-22T07:34:49.781Z,96.32
2018-04-22T07:35:58.618Z,97.47
2018-04-22T07:37:07.449Z,97.18
2018-04-22T07:38:16.584Z,96.22
2018-04-22T07:39:25.442Z,96.22
2018-04-22T07:40:34.254Z,95.65
2018-04-22T07:41:43.089Z,95.65
2018-04-22T07:42:51.924Z,95.84
2018-04-22T07:44:00.857Z,96.17
2018-04-22T07:45:09.690Z,96.27
2018-04-22T07:46:18.526Z,95.12
2018-04-22T07:47:27.361Z,95.12
2018-04-22T07:48:36.197Z,94.93
2018-04-22T07:49:45.180Z,94.93
2018-04-22T07:50:54.015Z,95.12
2018-04-22T07:52:02.848Z,95.03
2018-04-22T07:53:11.682Z,95.12
2018-04-22T07:54:20.516Z,95.12
2018-04-22T07:55:29.928Z,95.61
2018-04-22T07:56:38.812Z,95.84
2018-04-22T07:57:47.648Z,96.03
2018-04-22T07:58:56.482Z,95.84
2018-04-22T08:00:05.318Z,95.56
2018-04-22T08:01:14.254Z,95.27
2018-04-22T08:02:23.089Z,94.98
2018-04-22T08:03:31.928Z,94.7
2018-04-22T08:04:40.761Z,94.51
2018-04-22T08:05:49.598Z,94.65
2018-04-22T08:06:58.858Z,94.12
2018-04-22T08:08:07.698Z,93.93
2018-04-22T08:09:16.532Z,94.17
2018-04-22T08:10:25.368Z,94.17
2018-04-22T08:11:34.208Z,94.65
2018-04-22T08:12:43.043Z,94.26
2018-04-22T08:13:52.148Z,93.69
2018-04-22T08:15:01.257Z,93.98
2018-04-22T08:16:10.096Z,92.16
2018-04-22T08:17:19.264Z,92.25
2018-04-22T08:18:28.150Z,91.11
2018-04-22T08:19:36.996Z,89.96
2018-04-22T08:20:46.101Z,90.16
2018-04-22T08:21:54.941Z,90.58
2018-04-22T08:23:03.769Z,90.01
2018-04-22T08:24:13.259Z,90.01
2018-04-22T08:25:22.370Z,90.01
2018-04-22T08:26:31.204Z,89.91
2018-04-22T08:27:40.352Z,90.39
2018-04-22T08:28:49.490Z,90.01
2018-04-22T08:29:58.429Z,89.86
2018-04-22T08:31:07.549Z,88.52
2018-04-22T08:32:16.659Z,87.66
2018-04-22T08:33:25.493Z,87.08
2018-04-22T08:34:34.332Z,88.04
2018-04-22T08:35:43.167Z,87.56
2018-04-22T08:36:52.004Z,87.95
2018-04-22T08:38:00.839Z,87.47
2018-04-22T08:39:09.675Z,86.74
2018-04-22T08:40:18.514Z,85.41
2018-04-22T08:41:27.645Z,85.31
2018-04-22T08:42:36.482Z,85.79
2018-04-22T08:43:45.592Z,85.6
2018-04-22T08:44:54.430Z,85.41
2018-04-22T08:46:03.263Z,85.12
2018-04-22T08:47:12.096Z,85.31
2018-04-22T08:48:20.937Z,82.76
2018-04-22T08:49:29.773Z,81.77
2018-04-22T08:50:38.662Z,80.94
2018-04-22T08:51:47.446Z,82.09
2018-04-22T08:52:56.659Z,83.53
2018-04-22T08:54:05.774Z,84.39
2018-04-22T08:55:14.622Z,84.88
2018-04-22T08:56:23.461Z,85.74
2018-04-22T08:57:32.297Z,85.45
2018-04-22T08:58:41.432Z,86.55
2018-04-22T08:59:50.549Z,85.02
2018-04-22T09:00:59.395Z,84.58
2018-04-22T09:02:08.242Z,84.92
2018-04-22T09:03:17.430Z,84.74
2018-04-22T09:04:26.851Z,85.79
2018-04-22T09:05:35.693Z,85.88
2018-04-22T09:06:44.539Z,85.41
2018-04-22T09:07:53.387Z,84.74
2018-04-22T09:09:02.234Z,84.06
2018-04-22T09:10:11.508Z,85.45
2018-04-22T09:11:20.647Z,84.39
2018-04-22T09:12:29.496Z,84.68
2018-04-22T09:13:38.345Z,85.64
2018-04-22T09:14:47.192Z,85.83
2018-04-22T09:15:56.191Z,84.3
2018-04-22T09:17:05.043Z,84.63
2018-04-22T09:18:13.892Z,85.68
2018-04-22T09:19:22.740Z,83.95
2018-04-22T09:20:31.589Z,83.67
2018-04-22T09:21:40.764Z,82.85
2018-04-22T09:22:49.613Z,82.52
2018-04-22T09:23:58.465Z,83.29
2018-04-22T09:25:07.310Z,83.58
2018-04-22T09:26:16.155Z,84.05
2018-04-22T09:27:25.149Z,83.95
2018-04-22T09:28:34.274Z,84.05
2018-04-22T09:29:43.110Z,84.53
2018-04-22T09:30:51.992Z,85.11
2018-04-22T09:32:00.832Z,84.91
2018-04-22T09:33:09.698Z,84.48
2018-04-22T09:34:18.504Z,84.28
2018-04-22T09:35:27.341Z,84
2018-04-22T09:36:36.176Z,82.65
2018-04-22T09:37:45.022Z,82.12
2018-04-22T09:38:54.159Z,82.6
2018-04-22T09:40:03.004Z,82.79
2018-04-22T09:41:12.120Z,81.74
2018-04-22T09:42:20.960Z,81.16
2018-04-22T09:43:30.009Z,79.44
2018-04-22T09:44:39.276Z,80.05
2018-04-22T09:45:48.390Z,80.34
2018-04-22T09:46:57.554Z,79.57
2018-04-22T09:48:06.409Z,79.76
2018-04-22T09:49:15.245Z,79.09
2018-04-22T09:52:02.685Z,77.69
2018-04-22T09:53:11.522Z,78.32
2018-04-22T09:54:20.361Z,76.88
2018-04-22T09:55:29.201Z,77.65
2018-04-22T09:56:38.046Z,76.88
2018-04-22T09:57:46.885Z,77.75
2018-04-22T09:58:56.001Z,77.84
2018-04-22T10:00:04.839Z,77.59
2018-04-22T10:01:13.778Z,76.64
2018-04-22T10:02:22.616Z,77.4
2018-04-22T10:03:31.461Z,78.36
2018-04-22T10:04:40.293Z,77.63
2018-04-22T10:05:49.134Z,76.67
2018-04-22T10:06:57.974Z,78.02
2018-04-22T10:08:07.187Z,75.32
2018-04-22T10:09:16.024Z,76.67
2018-04-22T10:10:25.140Z,77.34
2018-04-22T10:11:33.979Z,77.25
2018-04-22T10:12:42.819Z,76.67
2018-04-22T10:13:51.708Z,76.67
2018-04-22T10:15:00.547Z,76.48
2018-04-22T10:16:09.936Z,76.29
2018-04-22T10:17:18.775Z,76.19
2018-04-22T10:18:27.764Z,76.57
2018-04-22T10:19:36.603Z,75.71
2018-04-22T10:20:45.447Z,76.29
2018-04-22T10:21:54.586Z,75.23
2018-04-22T10:23:03.692Z,75.23
2018-04-22T10:24:12.681Z,75.62
2018-04-22T10:25:21.522Z,76
2018-04-22T10:26:30.358Z,74.85
2018-04-22T10:27:39.785Z,75.23
2018-04-22T10:28:48.899Z,74.9
2018-04-22T10:29:58.145Z,74.94
2018-04-22T10:31:06.985Z,76.29
2018-04-22T10:32:16.374Z,77.25
2018-04-22T10:33:25.214Z,78.21
2018-04-22T10:34:34.058Z,77.63
2018-04-22T10:35:43.197Z,77.25
2018-04-22T10:36:52.313Z,79.07
2018-04-22T10:38:01.434Z,78.78
2018-04-22T10:39:10.275Z,76.96
2018-04-22T10:40:19.115Z,74.98
2018-04-22T10:41:28.051Z,74.3
2018-04-22T10:42:36.896Z,75.65
2018-04-22T10:43:45.728Z,75.11
2018-04-22T10:44:54.567Z,74.25
2018-04-22T10:46:03.413Z,73.38
2018-04-22T10:47:12.518Z,72.71
2018-04-22T10:48:21.637Z,72.45
2018-04-22T10:49:30.475Z,71.3
2018-04-22T10:50:39.331Z,71.97
2018-04-22T10:51:48.275Z,71.49
2018-04-22T10:52:57.165Z,71.59
2018-04-22T10:54:06.047Z,70.92
2018-04-22T10:55:14.912Z,71.11
2018-04-22T10:56:23.739Z,71.4
2018-04-22T10:57:32.577Z,70.53
2018-04-22T10:58:41.699Z,71.59
2018-04-22T10:59:50.571Z,71.78
2018-04-22T11:00:59.384Z,71.49
2018-04-22T11:02:08.772Z,71.3
2018-04-22T11:03:17.886Z,72.36
2018-04-22T11:04:26.727Z,71.24
2018-04-22T11:05:35.891Z,71.53
2018-04-22T11:06:44.735Z,71.53
2018-04-22T11:07:53.847Z,71.62
2018-04-22T11:09:02.691Z,71.62
2018-04-22T11:10:11.531Z,71.62
2018-04-22T11:11:20.370Z,71.37
2018-04-22T11:12:29.212Z,71.56
2018-04-22T11:13:38.050Z,70.5
2018-04-22T11:14:46.895Z,71.08
2018-04-22T11:15:56.005Z,70.89
2018-04-22T11:17:04.847Z,71.31
2018-04-22T11:18:13.708Z,70.64
2018-04-22T11:19:22.834Z,70.92
2018-04-22T11:20:31.673Z,70.15
2018-04-22T11:21:40.521Z,71.22
2018-04-22T11:22:49.361Z,71.31
2018-04-22T11:23:58.629Z,70.64
2018-04-22T11:25:07.473Z,70.15
2018-04-22T11:26:16.585Z,70.44
2018-04-22T11:27:25.475Z,70.64
2018-04-22T11:28:34.263Z,70.38
2018-04-22T11:29:43.406Z,70.25
2018-04-22T11:30:52.255Z,70.35
2018-04-22T11:32:01.094Z,69.42
2018-04-22T11:33:10.220Z,69.13
2018-04-22T11:34:19.060Z,69.9
2018-04-22T11:35:27.902Z,70.19
2018-04-22T11:36:37.020Z,69.13
2018-04-22T11:37:45.864Z,70.19
2018-04-22T11:38:54.705Z,69.03
2018-04-22T11:40:03.548Z,69.13
2018-04-22T11:41:12.591Z,70.19
2018-04-22T11:42:21.431Z,70.96
2018-04-22T11:43:30.273Z,69.51
2018-04-22T11:44:39.142Z,70.86
2018-04-22T11:45:47.954Z,71.25
2018-04-22T11:46:56.944Z,69.42
2018-04-22T11:48:05.786Z,69.16
2018-04-22T11:49:14.624Z,69.93
2018-04-22T11:50:23.468Z,69.35
2018-04-22T11:51:32.308Z,67.91
2018-04-22T11:52:41.200Z,68.68
2018-04-22T11:53:50.312Z,69.07
2018-04-22T11:54:59.154Z,67.85
2018-04-22T11:56:08.269Z,67.46
2018-04-22T11:57:17.389Z,67.94
2018-04-22T11:58:26.381Z,68.04
2018-04-22T11:59:35.224Z,67.94
2018-04-22T12:00:44.066Z,68.36
2018-04-22T12:01:52.910Z,68.07
2018-04-22T12:03:01.747Z,68.46
2018-04-22T12:04:10.890Z,66.05
2018-04-22T12:05:20.006Z,65.85
2018-04-22T12:06:28.949Z,66.91
2018-04-22T12:07:38.719Z,66.05
2018-04-22T12:08:47.563Z,66.91
2018-04-22T12:09:56.409Z,65.69
2018-04-22T12:11:05.259Z,66.56
2018-04-22T12:12:14.104Z,66.46
2018-04-22T12:13:22.948Z,67.04
2018-04-22T12:14:31.796Z,66.82
2018-04-22T12:15:40.643Z,67.14
2018-04-22T12:16:49.488Z,66.75
2018-04-22T12:17:58.331Z,66.94
2018-04-22T12:19:07.178Z,67.14
2018-04-22T12:20:16.024Z,65.98
2018-04-22T12:21:25.037Z,67.04
2018-04-22T12:22:33.881Z,67.24
2018-04-22T12:23:43.005Z,67.43
2018-04-22T12:24:51.845Z,67.52
2018-04-22T12:26:00.700Z,67.97
2018-04-22T12:27:09.695Z,67.72
2018-04-22T12:28:18.542Z,68.68
2018-04-22T12:29:27.388Z,68.3
2018-04-22T12:30:36.785Z,67.43
2018-04-22T12:31:45.644Z,67.33
2018-04-22T12:32:54.591Z,67.66
2018-04-22T12:34:03.723Z,67.72
2018-04-22T12:35:12.581Z,68.59
2018-04-22T12:36:21.705Z,68.43
2018-04-22T12:37:30.576Z,69.2
2018-04-22T12:38:39.471Z,67.27
2018-04-22T12:39:48.327Z,67.46
2018-04-22T12:40:57.168Z,68.33
2018-04-22T12:42:06.042Z,67.56
2018-04-22T12:43:14.893Z,68.17
2018-04-22T12:44:23.838Z,69.04
2018-04-22T12:45:32.685Z,68.17
2018-04-22T12:46:41.818Z,68.08
2018-04-22T12:47:51.015Z,69.24
2018-04-22T12:49:00.198Z,67.79
2018-04-22T12:50:09.149Z,67.69
2018-04-22T12:51:17.997Z,68.85
2018-04-22T12:52:26.843Z,69.08
2018-04-22T12:53:35.692Z,67.24
2018-04-22T12:54:44.542Z,67.05
2018-04-22T12:55:53.489Z,67.14
2018-04-22T12:57:02.343Z,67.66
2018-04-22T12:58:11.228Z,66.98
2018-04-22T12:59:20.145Z,67.56
2018-04-22T13:00:29.630Z,68.4
2018-04-22T13:01:38.533Z,67.18
2018-04-22T13:02:47.385Z,66.3
2018-04-22T13:03:56.232Z,66.11
2018-04-22T13:05:05.078Z,65.63
2018-04-22T13:06:14.203Z,65.72
2018-04-22T13:07:23.099Z,65.92
2018-04-22T13:08:31.949Z,65.14
2018-04-22T13:09:40.797Z,64.95
2018-04-22T13:10:49.647Z,65.63
2018-04-22T13:11:58.496Z,66.24
2018-04-22T13:13:07.909Z,65.85
2018-04-22T13:14:16.758Z,65.56
2018-04-22T13:15:26.157Z,65.56
2018-04-22T13:16:35.012Z,65.17
2018-04-22T13:17:43.857Z,65.66
2018-04-22T13:18:52.705Z,65.37
2018-04-22T13:20:01.553Z,65.47
2018-04-22T13:21:10.400Z,64.82
2018-04-22T13:22:19.245Z,65.01
2018-04-22T13:23:28.394Z,64.14
2018-04-22T13:24:37.822Z,63.85
2018-04-22T13:25:47.012Z,63.92
2018-04-22T13:26:56.151Z,64.69
2018-04-22T13:28:04.999Z,62.98
2018-04-22T13:29:13.848Z,63.07
2018-04-22T13:30:22.970Z,64.17
2018-04-22T13:31:31.813Z,62.82
2018-04-22T13:32:40.664Z,64.17
2018-04-22T13:33:50.077Z,63.78
2018-04-22T13:34:58.922Z,64.47
2018-04-22T13:36:07.822Z,64.04
2018-04-22T13:37:16.671Z,63.85
2018-04-22T13:38:25.516Z,64.14
2018-04-22T13:39:34.360Z,63.49
2018-04-22T13:40:43.209Z,63.88
2018-04-22T13:41:52.158Z,63.49
2018-04-22T13:43:01.010Z,62.04
2018-04-22T13:44:09.860Z,63.23
2018-04-22T13:45:18.709Z,62.91
2018-04-22T13:46:27.555Z,63.62
2018-04-22T13:47:36.558Z,63.88
2018-04-22T13:48:45.686Z,63.23
2018-04-22T13:49:54.543Z,63.43
2018-04-22T13:51:03.938Z,62.85
2018-04-22T13:52:12.787Z,62.01
2018-04-22T13:53:21.687Z,62.29
2018-04-22T13:54:30.537Z,62.55
2018-04-22T13:55:39.389Z,62.39
2018-04-22T13:56:48.511Z,62.39
2018-04-22T13:57:57.361Z,61.22
2018-04-22T13:59:06.362Z,61.55
2018-04-22T14:00:15.210Z,62.42
2018-04-22T14:01:24.342Z,61.74
2018-04-22T14:02:33.491Z,60.71
2018-04-22T14:03:42.317Z,60.93
2018-04-22T14:04:51.215Z,61.61
2018-04-22T14:06:00.068Z,60.05
2018-04-22T14:07:09.192Z,59.47
2018-04-22T14:08:18.324Z,59.59
2018-04-22T14:09:27.175Z,58.33
2018-04-22T14:10:36.283Z,57.49
2018-04-22T14:11:45.133Z,58.39
2018-04-22T14:12:53.982Z,57.32
2018-04-22T14:14:02.833Z,56.84
2018-04-22T14:15:11.968Z,56.86
2018-04-22T14:16:20.812Z,56.76
2018-04-22T14:17:29.669Z,56.6
2018-04-22T14:18:38.523Z,55.99
2018-04-22T14:19:47.407Z,55.82
2018-04-22T14:20:56.904Z,55.26
2018-04-22T14:22:05.807Z,55.48
2018-04-22T14:23:14.655Z,54.63
2018-04-22T14:24:23.507Z,54.56
2018-04-22T14:25:32.362Z,53.61
2018-04-22T14:26:41.313Z,53.56
2018-04-22T14:27:50.216Z,53.56
2018-04-22T14:28:59.645Z,54.34
2018-04-22T14:30:08.499Z,54.5
2018-04-22T14:31:17.384Z,54.14
2018-04-22T14:32:26.206Z,54.93
2018-04-22T14:33:35.361Z,54.44
2018-04-22T14:34:44.217Z,54.24
2018-04-22T14:35:53.073Z,54.05
2018-04-22T14:37:02.203Z,54.24
2018-04-22T14:38:11.058Z,54.31
2018-04-22T14:39:19.917Z,54.63
2018-04-22T14:40:29.066Z,53.66
2018-04-22T14:41:38.232Z,54.34
2018-04-22T14:42:47.062Z,54.53
2018-04-22T14:43:55.965Z,53.75
2018-04-22T14:45:05.099Z,54.34
2018-04-22T14:46:13.962Z,53.58
2018-04-22T14:47:23.096Z,54.83
2018-04-22T14:48:31.952Z,54.34
2018-04-22T14:49:40.805Z,54.14
2018-04-22T14:50:50.046Z,54.44